createdAt,value
2024-04-14T00:00:25.059Z,15.10
2024-04-14T00:06:28.281Z,17.40
2024-04-14T00:09:29.735Z,17.90
2024-04-14T00:15:32.513Z,18.70
2024-04-14T00:21:36.431Z,19.30
2024-04-14T00:24:37.812Z,19.40
2024-04-14T00:30:42.468Z,17.70
2024-04-14T00:33:43.963Z,20.30
2024-04-14T00:39:46.752Z,20.00
2024-04-14T00:45:50.888Z,19.20
2024-04-14T00:48:52.463Z,18.70
2024-04-14T00:51:55.323Z,17.00
2024-04-14T00:54:57.223Z,17.10
2024-04-14T00:57:58.938Z,17.00
2024-04-14T01:01:00.518Z,18.40
2024-04-14T01:04:02.124Z,17.20
2024-04-14T01:07:03.652Z,18.50
2024-04-14T01:10:06.114Z,19.10
2024-04-14T01:13:07.539Z,19.40
2024-04-14T01:19:10.264Z,17.70
2024-04-14T01:25:13.111Z,15.40
2024-04-14T01:28:14.518Z,17.80
2024-04-14T01:31:15.906Z,17.90
2024-04-14T01:34:17.268Z,18.60
2024-04-14T01:40:19.937Z,18.10
2024-04-14T01:46:22.569Z,16.10
2024-04-14T01:49:23.949Z,17.00
2024-04-14T01:55:27.422Z,18.70
2024-04-14T01:58:28.878Z,19.00
2024-04-14T02:04:33.642Z,18.20
2024-04-14T02:07:35.245Z,21.30
2024-04-14T02:10:40.427Z,24.90
2024-04-14T02:13:41.985Z,23.20
2024-04-14T02:16:43.346Z,22.70
2024-04-14T02:19:44.675Z,23.90
2024-04-14T02:25:57.626Z,23.00
2024-04-14T02:28:59.067Z,25.00
2024-04-14T02:35:01.977Z,22.00
2024-04-14T02:38:03.441Z,24.80
2024-04-14T02:47:07.833Z,19.30
2024-04-14T02:50:09.237Z,19.50
2024-04-14T02:56:12.001Z,18.90
2024-04-14T03:02:14.855Z,18.00
2024-04-14T03:08:17.579Z,16.20
2024-04-14T03:11:18.999Z,19.00
2024-04-14T03:17:21.845Z,18.60
2024-04-14T03:20:23.208Z,19.20
2024-04-14T03:23:25.963Z,17.60
2024-04-14T03:26:27.377Z,18.60
2024-04-14T03:32:30.058Z,17.10
2024-04-14T03:38:33.639Z,17.50
2024-04-14T03:41:35.108Z,18.40
2024-04-14T03:47:37.862Z,16.80
2024-04-14T03:53:40.577Z,16.70
2024-04-14T03:56:42.090Z,15.30
2024-04-14T04:02:45.691Z,16.30
2024-04-14T04:08:56.141Z,13.70
2024-04-14T04:14:59.072Z,19.50
2024-04-14T04:18:00.711Z,17.20
2024-04-14T04:21:12.344Z,19.40
2024-04-14T04:24:14.095Z,20.70
2024-04-14T04:27:15.675Z,20.70
2024-04-14T04:33:22.213Z,22.40
2024-04-14T04:36:24.006Z,20.90
2024-04-14T04:39:25.708Z,20.50
2024-04-14T04:42:30.389Z,23.10
2024-04-14T04:45:34.626Z,21.80
2024-04-14T04:48:36.455Z,21.90
2024-04-14T04:51:38.147Z,19.40
2024-04-14T04:54:39.710Z,21.20
2024-04-14T04:57:41.280Z,19.40
2024-04-14T05:00:53.885Z,18.10
2024-04-14T05:03:55.378Z,18.50
2024-04-14T05:06:56.838Z,16.00
2024-04-14T05:13:02.150Z,15.20
2024-04-14T05:16:03.793Z,17.20
2024-04-14T05:19:05.540Z,16.50
2024-04-14T05:22:07.018Z,14.80
2024-04-14T05:25:08.499Z,14.70
2024-04-14T05:28:10.057Z,14.60
2024-04-14T05:31:14.171Z,15.10
2024-04-14T05:34:15.621Z,15.70
2024-04-14T05:37:16.998Z,14.00
2024-04-14T05:43:19.759Z,13.40
2024-04-14T05:46:21.621Z,12.60
2024-04-14T05:49:23.132Z,11.80
2024-04-14T05:52:24.604Z,11.20
2024-04-14T05:55:26.318Z,11.50
2024-04-14T05:58:27.846Z,10.80
2024-04-14T06:01:29.397Z,10.50
2024-04-14T06:04:30.887Z,10.80
2024-04-14T06:07:35.259Z,10.60
2024-04-14T06:10:37.922Z,9.20
2024-04-14T06:13:39.409Z,9.90
2024-04-14T06:16:40.876Z,8.70
2024-04-14T06:19:42.508Z,8.50
2024-04-14T06:22:43.899Z,8.80
2024-04-14T06:25:45.500Z,9.10
2024-04-14T06:28:46.928Z,9.60
2024-04-14T06:31:48.334Z,9.20
2024-04-14T06:34:49.700Z,8.60
2024-04-14T06:37:51.108Z,8.40
2024-04-14T06:40:52.477Z,7.20
2024-04-14T06:43:53.948Z,7.90
2024-04-14T06:46:55.309Z,7.00
2024-04-14T06:49:56.858Z,6.00
2024-04-14T06:52:58.357Z,6.00
2024-04-14T06:55:59.790Z,6.70
2024-04-14T06:59:01.210Z,6.50
2024-04-14T07:02:02.762Z,7.30
2024-04-14T07:05:04.831Z,7.60
2024-04-14T07:08:06.573Z,9.60
2024-04-14T07:11:09.885Z,9.50
2024-04-14T07:14:11.242Z,9.60
2024-04-14T07:17:13.926Z,9.70
2024-04-14T07:20:15.351Z,9.20
2024-04-14T07:23:16.937Z,8.80
2024-04-14T07:26:18.354Z,8.10
2024-04-14T07:29:19.891Z,8.70
2024-04-14T07:32:21.403Z,8.50
2024-04-14T07:35:22.825Z,8.60
2024-04-14T07:38:24.295Z,8.00
2024-04-14T07:41:25.661Z,7.80
2024-04-14T07:44:27.207Z,8.40
2024-04-14T07:47:28.713Z,7.40
2024-04-14T07:50:31.450Z,7.10
2024-04-14T07:53:34.217Z,7.10
2024-04-14T07:56:40.503Z,7.50
2024-04-14T07:59:44.615Z,7.60
2024-04-14T08:02:46.713Z,6.90
2024-04-14T08:05:48.096Z,7.20
2024-04-14T08:08:49.544Z,7.10
2024-04-14T08:11:51.062Z,6.80
2024-04-14T08:14:52.472Z,7.20
2024-04-14T08:17:54.680Z,7.30
2024-04-14T08:20:57.827Z,7.10
2024-04-14T08:23:59.598Z,5.80
2024-04-14T08:27:01.033Z,5.80
2024-04-14T08:30:02.443Z,5.20
2024-04-14T08:33:04.143Z,5.70
2024-04-14T08:36:05.977Z,5.70
2024-04-14T08:39:07.600Z,5.50
2024-04-14T08:42:11.001Z,5.10
2024-04-14T08:45:14.712Z,5.40
2024-04-14T08:48:18.277Z,4.70
2024-04-14T08:51:21.618Z,5.00
2024-04-14T08:54:23.479Z,5.00
2024-04-14T08:57:26.225Z,4.80
2024-04-14T09:00:29.474Z,5.00
2024-04-14T09:03:31.803Z,4.60
2024-04-14T09:06:33.977Z,4.50
2024-04-14T09:09:36.380Z,4.60
2024-04-14T09:12:37.937Z,4.20
2024-04-14T09:15:40.662Z,4.70
2024-04-14T09:18:44.350Z,4.50
2024-04-14T09:21:46.712Z,3.90
2024-04-14T09:24:48.307Z,3.90
2024-04-14T09:27:49.923Z,3.70
2024-04-14T09:30:54.829Z,3.50
2024-04-14T09:33:56.926Z,3.50
2024-04-14T09:37:00.803Z,3.40
2024-04-14T09:40:06.143Z,3.70
2024-04-14T09:43:07.771Z,3.80
2024-04-14T09:46:09.726Z,3.50
2024-04-14T09:49:11.250Z,3.10
2024-04-14T09:52:13.629Z,3.50
2024-04-14T09:55:15.145Z,3.40
2024-04-14T09:58:16.649Z,3.00
2024-04-14T10:01:22.855Z,3.60
2024-04-14T10:04:24.749Z,3.30
2024-04-14T10:07:27.433Z,3.10
2024-04-14T10:10:29.034Z,3.10
2024-04-14T10:13:30.662Z,3.60
2024-04-14T10:16:32.107Z,3.40
2024-04-14T10:19:39.569Z,3.50
2024-04-14T10:22:44.132Z,3.30
2024-04-14T10:25:49.062Z,3.30
2024-04-14T10:28:51.665Z,3.50
2024-04-14T10:31:53.059Z,3.50
2024-04-14T10:34:54.715Z,3.50
2024-04-14T10:37:56.737Z,3.80
2024-04-14T10:40:58.397Z,3.30
2024-04-14T10:43:59.844Z,3.30
2024-04-14T10:47:01.374Z,3.30
2024-04-14T10:50:03.159Z,3.10
2024-04-14T10:53:05.262Z,3.40
2024-04-14T10:56:09.192Z,3.20
2024-04-14T10:59:10.580Z,3.60
2024-04-14T11:02:12.043Z,3.20
2024-04-14T11:05:13.686Z,3.50
2024-04-14T11:08:15.266Z,3.50
2024-04-14T11:11:16.936Z,3.30
2024-04-14T11:14:18.787Z,3.50
2024-04-14T11:17:20.185Z,3.30
2024-04-14T11:20:21.755Z,3.10
2024-04-14T11:23:23.406Z,3.50
2024-04-14T11:26:24.791Z,3.40
2024-04-14T11:29:27.442Z,3.50
2024-04-14T11:32:29.032Z,3.30
2024-04-14T11:35:30.450Z,3.30
2024-04-14T11:38:31.832Z,3.30
2024-04-14T11:41:33.291Z,3.60
2024-04-14T11:44:34.786Z,3.30
2024-04-14T11:47:36.282Z,3.50
2024-04-14T11:50:37.734Z,3.30
2024-04-14T11:53:39.196Z,3.20
2024-04-14T11:56:40.611Z,3.70
2024-04-14T11:59:42.008Z,3.60
2024-04-14T12:02:43.483Z,3.40
2024-04-14T12:05:44.987Z,3.40
2024-04-14T12:08:46.371Z,3.70
2024-04-14T12:11:47.798Z,3.30
2024-04-14T12:14:49.263Z,3.80
2024-04-14T12:17:50.734Z,3.60
2024-04-14T12:20:52.300Z,3.50
2024-04-14T12:23:53.710Z,4.30
2024-04-14T12:26:56.337Z,3.40
2024-04-14T12:29:57.898Z,3.60
2024-04-14T12:32:59.450Z,3.80
2024-04-14T12:36:00.936Z,4.10
2024-04-14T12:39:02.369Z,3.80
2024-04-14T12:42:04.761Z,4.10
2024-04-14T12:45:07.055Z,4.30
2024-04-14T12:48:11.356Z,4.00
2024-04-14T12:51:13.032Z,3.70
2024-04-14T12:54:14.392Z,3.70
2024-04-14T12:57:15.754Z,3.90
2024-04-14T13:00:17.250Z,3.90
2024-04-14T13:03:18.657Z,3.80
2024-04-14T13:06:20.033Z,4.10
2024-04-14T13:09:21.395Z,3.60
2024-04-14T13:12:22.816Z,3.30
2024-04-14T13:15:24.255Z,3.70
2024-04-14T13:18:25.723Z,4.00
2024-04-14T13:21:27.232Z,3.80
2024-04-14T13:24:28.779Z,3.40
2024-04-14T13:27:30.112Z,3.70
2024-04-14T13:30:32.601Z,3.50
2024-04-14T13:33:34.151Z,3.50
2024-04-14T13:36:35.758Z,3.50
2024-04-14T13:39:37.273Z,3.30
2024-04-14T13:42:38.720Z,3.60
2024-04-14T13:45:40.173Z,3.50
2024-04-14T13:48:41.602Z,3.60
2024-04-14T13:51:43.098Z,3.70
2024-04-14T13:54:44.574Z,3.60
2024-04-14T13:57:45.986Z,3.50
2024-04-14T14:00:52.349Z,3.60
2024-04-14T14:03:54.054Z,4.10
2024-04-14T14:06:55.571Z,3.80
2024-04-14T14:09:57.026Z,3.90
2024-04-14T14:12:58.573Z,4.10
2024-04-14T14:16:00.354Z,3.50
2024-04-14T14:19:02.047Z,3.90
2024-04-14T14:22:03.536Z,4.00
2024-04-14T14:25:05.402Z,3.80
2024-04-14T14:28:07.053Z,4.40
2024-04-14T14:31:08.958Z,4.10
2024-04-14T14:34:10.466Z,3.70
2024-04-14T14:37:11.937Z,4.20
2024-04-14T14:40:13.429Z,4.40
2024-04-14T14:43:14.848Z,3.90
2024-04-14T14:46:16.547Z,3.50
2024-04-14T14:49:18.056Z,3.90
2024-04-14T14:52:19.697Z,3.70
2024-04-14T14:55:27.730Z,4.20
2024-04-14T14:58:29.570Z,4.10
2024-04-14T15:01:31.035Z,3.90
2024-04-14T15:04:32.602Z,4.10
2024-04-14T15:07:34.136Z,3.90
2024-04-14T15:10:51.314Z,4.00
2024-04-14T15:13:52.678Z,3.90
2024-04-14T15:16:54.572Z,4.00
2024-04-14T15:19:56.016Z,4.00
2024-04-14T15:22:57.388Z,4.00
2024-04-14T15:25:59.037Z,3.80
2024-04-14T15:29:00.433Z,3.70
2024-04-14T15:32:01.896Z,3.80
2024-04-14T15:35:03.508Z,3.60
2024-04-14T15:38:04.940Z,4.30
2024-04-14T15:41:06.503Z,5.10
2024-04-14T15:44:14.936Z,5.00
2024-04-14T15:47:23.293Z,5.20
2024-04-14T15:50:24.680Z,4.90
2024-04-14T15:53:26.116Z,5.20
2024-04-14T15:56:27.578Z,4.40
2024-04-14T15:59:28.975Z,4.70
2024-04-14T16:02:33.815Z,4.90
2024-04-14T16:05:42.957Z,4.70
2024-04-14T16:08:44.828Z,4.90
2024-04-14T16:11:46.220Z,4.80
2024-04-14T16:14:50.988Z,4.80
2024-04-14T16:17:52.849Z,4.90
2024-04-14T16:20:54.364Z,4.60
2024-04-14T16:23:55.937Z,5.10
2024-04-14T16:26:57.830Z,5.10
2024-04-14T16:30:17.787Z,5.50
2024-04-14T16:33:38.154Z,5.00
2024-04-14T16:36:58.550Z,5.20
2024-04-14T16:40:00.074Z,4.90
2024-04-14T16:43:01.638Z,5.30
2024-04-14T16:46:03.495Z,5.00
2024-04-14T16:49:05.249Z,5.00
2024-04-14T16:52:07.042Z,5.10
2024-04-14T16:55:11.823Z,6.70
2024-04-14T16:58:15.824Z,6.10
2024-04-14T17:01:17.367Z,5.80
2024-04-14T17:04:19.039Z,6.40
2024-04-14T17:07:20.730Z,6.50
2024-04-14T17:10:22.214Z,5.70
2024-04-14T17:13:23.828Z,6.20
2024-04-14T17:16:25.253Z,5.70
2024-04-14T17:19:26.817Z,5.70
2024-04-14T17:22:28.798Z,5.50
2024-04-14T17:25:30.394Z,5.70
2024-04-14T17:28:31.908Z,5.80
2024-04-14T17:31:33.374Z,7.00
2024-04-14T17:34:34.821Z,5.60
2024-04-14T17:41:40.377Z,5.50
2024-04-14T17:44:41.763Z,5.60
2024-04-14T17:47:43.289Z,5.80
2024-04-14T17:50:52.146Z,5.60
2024-04-14T17:53:53.690Z,5.70
2024-04-14T17:56:55.123Z,5.70
2024-04-14T17:59:56.523Z,5.80
2024-04-14T18:02:57.859Z,7.40
2024-04-14T18:05:59.518Z,8.40
2024-04-14T18:09:00.891Z,5.80
2024-04-14T18:12:02.311Z,7.10
2024-04-14T18:15:04.056Z,5.80
2024-04-14T18:18:05.789Z,6.30
2024-04-14T18:21:07.351Z,5.90
2024-04-14T18:24:08.751Z,6.30
2024-04-14T18:27:10.258Z,6.40
2024-04-14T18:30:11.710Z,5.80
2024-04-14T18:33:15.775Z,6.10
2024-04-14T18:36:19.099Z,6.30
2024-04-14T18:39:21.029Z,6.40
2024-04-14T18:42:22.454Z,5.90
2024-04-14T18:45:23.895Z,6.00
2024-04-14T18:48:32.939Z,6.50
2024-04-14T18:51:34.475Z,6.10
2024-04-14T18:54:36.002Z,6.30
2024-04-14T18:57:37.570Z,6.30
2024-04-14T19:35:23.511Z,10.10
2024-04-14T19:38:43.777Z,9.40
2024-04-14T19:42:04.199Z,9.40
2024-04-14T19:45:24.228Z,8.50
2024-04-14T19:48:26.191Z,8.30
2024-04-14T19:51:27.627Z,7.90
2024-04-14T19:54:29.046Z,7.20
2024-04-14T19:57:30.441Z,7.20
2024-04-14T20:00:31.897Z,7.00
2024-04-14T20:03:33.339Z,7.10
2024-04-14T20:06:34.746Z,6.80
2024-04-14T20:09:36.275Z,6.20
2024-04-14T20:12:37.792Z,6.60
2024-04-14T20:15:39.297Z,5.60
2024-04-14T20:18:40.805Z,6.30
2024-04-14T20:21:42.283Z,6.30
2024-04-14T20:24:43.694Z,6.00
2024-04-14T20:27:45.115Z,6.40
2024-04-14T20:30:46.524Z,6.50
2024-04-14T20:33:47.871Z,5.40
2024-04-14T20:36:49.350Z,6.20
2024-04-14T20:39:50.744Z,6.20
